Hauptseite
METAR-TAF:

METAR-TAF

Flughäfen :

Flughafen Bologna

Bologna, Italien

Breite: 44-32N, Länge: 011-18E, Höhe: 36 m

Beobachtung

Neuester Wetterbericht von vor 43 Minuten, um 10:20 UTC
Wind 5 kt aus West/Nordwest, variierte zwischen West/Südwest und Nord/Nordost
Temperatur 30°C
Luftfeuchtigkeit 43%
Luftdruck 1013 hPa
Sichtweite 10 km oder mehr
keine Wolken unter 1500 m und keine Kumulonimbus oder Gewitterwolken

METAR: LIPE 191020Z 30005KT 250V020 CAVOK 30/16 Q1013

Zeit: 13:03 (11:03 UTC)

Prognose

Neuester Wetterbericht von vor 6 Stunden und 3 Minuten, um 05:00 UTC
Gültige Prognose vom 19 um 06 UTC bis 20 um 06 UTC
Wind 5 kt aus unterschiedlichen Richtungen
Sichtweite 10 km oder mehr
keine Wolken unter 1500 m und keine Kumulonimbus oder Gewitterwolken

TAF: LIPE 190500Z 1906/2006 VRB05KT CAVOK

Wetterbeobachtungen und Prognosen von mehr als 4000 Flughäfen (METAR und TAF Bericht).

Die verfügbaren Stationen werden durch gelbe und rote Markierungen auf der Karte dargestellt.

Führen Sie die Maus auf sie, um den Namen der Station zu sehen.

Darauf klicken, um die Beobachtung von Wetterbeobachtungen und Prognosen zu sehen.

Um die Karte zu ändern : klicken Sie auf den grünen Tasten mit einem schwarzen Kreuz Zum Vergrößern, auf den grünen Button mit einem Gedankenstrich zu verkleinern, oder auf die grünen Pfeile für benachbarte Karten.


METAR-TAF: